Stuart, FL (34997)

5:58 PM EST on February 21, 2017 (GMT -0500)
St. Lucie Inlet | | Change Station
Active Advisory: Small Craft Advisory

Elev 16 ft 27.16 °N, 80.20 °W | Updated 20 minutes ago

Clear
Clear
73.0 °F
Feels Like 76 °F
N
6.0
Wind Variable Wind from NNW
Gusts 11.0 mph

Today
High -- | Low -- °F
--% Chance of Precip.
Yesterday
High -- | Low -- °F
Precip. -- in
Pressure 30.00 in
Visibility 10.0 miles
Clouds Clear
Heat Index 76 °F
Dew Point 61 °F
Humidity 67%
Rainfall in
Snow Depth Not available.
6:52 AM 6:17 PM
Waning Crescent, 22% visible
METAR KFPR 212253Z 13012KT 10SM CLR 23/16 A3000 RMK AO2 SLP157 T02280156
Pressure 30.00 in
Visibility 10.0 miles
Clouds Clear
Heat Index 76 °F
Dew Point 61 °F
Humidity 67%
Rainfall in
Snow Depth Not available.
6:52 AM 6:17 PM
Waning Crescent, 22% visible
METAR KFPR 212253Z 13012KT 10SM CLR 23/16 A3000 RMK AO2 SLP157 T02280156

Get Your Daily Forecast Email!

Thanks for signing up!

Be on the lookout for a verification email in your inbox.

You'll start receiving the daily forecast at 8 AM.

×

10-Day Weather Forecast

Almanac

Astronomy

Feb. 21, 2017 Rise Set
Actual Time
Civil Twilight
Nautical Twilight
Astronomical Twilight
Moon
Length of Visible Light
Length of Day
Tomorrow will be .
, % of the Moon is Illuminated

Today's Extremes

State Highs State Lows

Community

WunderPhotos

Upload Photos

1,962,540 photos uploaded!

WunderBlog® & News

Nearby

Air Quality

  Air Quality AQ Index Pollutant
Not available.

Snow Depth

Station Depth Elevation

Earthquake Activity

City Distance Mag. Time & Date
Minimum magnitude displayed is 2.5.

Coastal Water Temperatures

Place Temperature

Stations

Nearby Weather Stations

Station Location Temp. Windchill Dew Point Humidity Wind Precip. Elev Updated Type
                   

Watches & Warnings

Small Craft Advisory
Issued: 3:17 PM EST Feb. 21, 2017 – National Weather Service

... Small Craft Advisory in effect from 4 am Wednesday to 4 PM EST
Thursday...

The National Weather Service in Melbourne has issued a Small
Craft Advisory, which is in effect from 4 am Wednesday to 4 PM
EST Thursday.

* Winds... winds will increase to abround 20 knots Wednesday
morning.

* Waves/seas... seas will build to 6 to 7 feet during Wednesday.

Precautionary/preparedness actions...

A Small Craft Advisory means that wind speeds of 20 to 33 knots
are expected to produce hazardous wave conditions to small craft.
Inexperienced mariners... especially those operating smaller
vessels should avoid navigating in these conditions.